TimeCDT,TemperatureF,Dew PointF,Humidity,Sea Level PressureIn,VisibilityMPH,Wind Direction,Wind SpeedMPH,Gust SpeedMPH,PrecipitationIn,Events,Conditions,WindDirDegrees,DateUTC
12:15 AM,44.6,39.2,81,30.02,5.0,West,5.8,-,N/A,,Clear,260,2013-05-11 05:15:00
12:35 AM,44.6,39.2,81,30.01,4.0,WSW,4.6,-,N/A,,Clear,250,2013-05-11 05:35:00
12:55 AM,46.4,42.8,87,30.01,0.8,WSW,3.5,-,N/A,,Unknown,240,2013-05-11 05:55:00
1:15 AM,44.6,42.8,93,30.00,0.2,SSW,4.6,-,N/A,,Unknown,210,2013-05-11 06:15:00
1:35 AM,44.6,41.0,87,30.00,0.5,SSW,6.9,-,N/A,,Unknown,200,2013-05-11 06:35:00
1:55 AM,44.6,41.0,87,29.99,0.5,South,5.8,-,N/A,,Unknown,190,2013-05-11 06:55:00
2:15 AM,42.8,39.2,87,29.99,0.2,SW,5.8,-,N/A,,Unknown,220,2013-05-11 07:15:00
2:35 AM,42.8,39.2,87,29.98,0.8,SSW,5.8,-,N/A,,Unknown,200,2013-05-11 07:35:00
2:55 AM,42.8,39.2,87,29.98,0.5,SSW,6.9,-,N/A,,Unknown,210,2013-05-11 07:55:00
3:15 AM,42.8,39.2,87,29.97,1.0,South,6.9,-,N/A,,Clear,190,2013-05-11 08:15:00
3:35 AM,42.8,39.2,87,29.97,1.5,SSW,6.9,-,N/A,,Clear,200,2013-05-11 08:35:00
3:55 AM,42.8,39.2,87,29.97,0.5,SSW,8.1,-,N/A,,Unknown,200,2013-05-11 08:55:00
4:15 AM,42.8,39.2,87,29.96,0.8,South,9.2,-,N/A,,Unknown,190,2013-05-11 09:15:00
4:35 AM,44.6,41.0,87,29.96,2.5,SSW,8.1,-,N/A,,Clear,200,2013-05-11 09:35:00
4:55 AM,42.8,39.2,87,29.95,2.0,SSW,6.9,-,N/A,,Clear,200,2013-05-11 09:55:00
5:15 AM,44.6,41.0,87,29.94,2.0,South,6.9,-,N/A,,Clear,190,2013-05-11 10:15:00
5:35 AM,44.6,41.0,87,29.94,3.0,SSW,6.9,-,N/A,,Clear,200,2013-05-11 10:35:00
5:55 AM,46.4,42.8,87,29.93,3.0,South,8.1,-,N/A,,Clear,190,2013-05-11 10:55:00
6:15 AM,46.4,44.6,93,29.93,3.0,SSW,8.1,-,N/A,,Clear,200,2013-05-11 11:15:00
6:35 AM,48.2,44.6,87,29.93,5.0,SW,11.5,-,N/A,,Clear,230,2013-05-11 11:35:00
6:55 AM,48.2,44.6,87,29.93,4.0,WSW,11.5,-,N/A,,Mostly Cloudy,240,2013-05-11 11:55:00
7:15 AM,50.0,46.4,87,29.92,7.0,WSW,13.8,-,N/A,,Mostly Cloudy,250,2013-05-11 12:15:00
7:35 AM,50.0,46.4,87,29.92,7.0,West,15.0,-,N/A,,Scattered Clouds,260,2013-05-11 12:35:00
7:55 AM,51.8,46.4,82,29.92,8.0,West,17.3,-,N/A,,Clear,260,2013-05-11 12:55:00
8:15 AM,51.8,46.4,82,29.92,10.0,WNW,24.2,29.9,N/A,,Clear,290,2013-05-11 13:15:00
8:35 AM,53.6,44.6,72,29.93,10.0,WNW,25.3,31.1,N/A,,Clear,300,2013-05-11 13:35:00
8:55 AM,53.6,42.8,67,29.94,10.0,NW,19.6,31.1,N/A,,Clear,310,2013-05-11 13:55:00
9:15 AM,53.6,42.8,67,29.94,10.0,NW,26.5,31.1,N/A,,Clear,310,2013-05-11 14:15:00
9:35 AM,53.6,42.8,67,29.95,10.0,NW,26.5,32.2,N/A,,Clear,320,2013-05-11 14:35:00
9:55 AM,55.4,41.0,58,29.95,10.0,NW,27.6,33.4,N/A,,Clear,310,2013-05-11 14:55:00
10:15 AM,55.4,37.4,51,29.95,10.0,NW,25.3,34.5,N/A,,Clear,310,2013-05-11 15:15:00
10:35 AM,55.4,33.8,44,29.96,10.0,NNW,31.1,40.3,N/A,,Clear,330,2013-05-11 15:35:00
10:55 AM,55.4,35.6,47,29.97,10.0,NW,28.8,40.3,N/A,,Clear,310,2013-05-11 15:55:00
11:15 AM,55.4,28.4,36,29.98,10.0,NW,29.9,38.0,N/A,,Clear,320,2013-05-11 16:15:00
11:35 AM,55.4,30.2,38,29.98,10.0,NW,29.9,36.8,N/A,,Clear,320,2013-05-11 16:35:00
11:55 AM,55.4,26.6,33,29.99,10.0,NNW,31.1,38.0,N/A,,Clear,330,2013-05-11 16:55:00
12:15 PM,57.2,30.2,36,30.00,10.0,NW,29.9,38.0,N/A,,Clear,320,2013-05-11 17:15:00
12:35 PM,57.2,30.2,36,30.01,10.0,NW,26.5,36.8,N/A,,Clear,320,2013-05-11 17:35:00
12:55 PM,57.2,28.4,33,30.01,10.0,NW,28.8,38.0,N/A,,Clear,320,2013-05-11 17:55:00
1:15 PM,57.2,30.2,36,30.01,10.0,NW,27.6,33.4,N/A,,Clear,320,2013-05-11 18:15:00
1:35 PM,57.2,30.2,36,30.02,10.0,NW,25.3,38.0,N/A,,Partly Cloudy,320,2013-05-11 18:35:00
1:55 PM,55.4,28.4,36,30.03,10.0,NW,32.2,40.3,N/A,,Scattered Clouds,320,2013-05-11 18:55:00
2:15 PM,53.6,26.6,35,30.03,10.0,NW,29.9,35.7,N/A,,Mostly Cloudy,310,2013-05-11 19:15:00
2:35 PM,55.4,28.4,36,30.04,10.0,NW,27.6,33.4,N/A,,Mostly Cloudy,320,2013-05-11 19:35:00
2:55 PM,55.4,26.6,33,30.04,10.0,NW,29.9,35.7,N/A,,Scattered Clouds,310,2013-05-11 19:55:00
3:15 PM,55.4,26.6,33,30.04,10.0,NW,27.6,41.4,N/A,,Scattered Clouds,310,2013-05-11 20:15:00
3:35 PM,55.4,28.4,36,30.05,10.0,NW,25.3,32.2,N/A,,Scattered Clouds,320,2013-05-11 20:35:00
3:55 PM,53.6,26.6,35,30.05,10.0,NW,27.6,33.4,N/A,,Scattered Clouds,320,2013-05-11 20:55:00
4:15 PM,55.4,28.4,36,30.06,10.0,NW,28.8,38.0,N/A,,Mostly Cloudy,320,2013-05-11 21:15:00
4:35 PM,53.6,26.6,35,30.06,10.0,NW,23.0,31.1,N/A,,Mostly Cloudy,320,2013-05-11 21:35:00
4:55 PM,51.8,26.6,38,30.07,10.0,NW,25.3,32.2,N/A,,Mostly Cloudy,310,2013-05-11 21:55:00
5:15 PM,53.6,28.4,38,30.07,10.0,NW,24.2,32.2,N/A,,Partly Cloudy,320,2013-05-11 22:15:00
5:35 PM,53.6,24.8,33,30.08,10.0,NW,28.8,40.3,N/A,,Clear,310,2013-05-11 22:35:00
5:55 PM,53.6,26.6,35,30.08,10.0,NW,23.0,32.2,N/A,,Clear,320,2013-05-11 22:55:00
6:15 PM,51.8,26.6,38,30.09,10.0,NNW,19.6,28.8,N/A,,Mostly Cloudy,330,2013-05-11 23:15:00
6:35 PM,51.8,26.6,38,30.09,10.0,NNW,23.0,27.6,N/A,,Scattered Clouds,330,2013-05-11 23:35:00
6:55 PM,51.8,26.6,38,30.09,10.0,NW,13.8,-,N/A,,Clear,320,2013-05-11 23:55:00
7:15 PM,50.0,26.6,40,30.09,10.0,NW,16.1,-,N/A,,Clear,320,2013-05-12 00:15:00
7:35 PM,50.0,26.6,40,30.09,10.0,NNW,11.5,-,N/A,,Clear,330,2013-05-12 00:35:00
7:55 PM,48.2,26.6,43,30.09,10.0,NW,13.8,-,N/A,,Clear,320,2013-05-12 00:55:00
8:15 PM,46.4,26.6,46,30.09,10.0,NW,11.5,-,N/A,,Clear,310,2013-05-12 01:15:00
8:35 PM,44.6,26.6,49,30.10,10.0,WNW,9.2,-,N/A,,Clear,300,2013-05-12 01:35:00
9:15 PM,42.8,26.6,53,30.11,10.0,WNW,10.4,-,N/A,,Clear,300,2013-05-12 02:15:00
9:35 PM,41.0,26.6,57,30.11,10.0,WNW,9.2,-,N/A,,Clear,300,2013-05-12 02:35:00
9:55 PM,41.0,26.6,57,30.12,10.0,WNW,9.2,-,N/A,,Clear,300,2013-05-12 02:55:00
10:15 PM,41.0,26.6,57,30.13,10.0,NW,10.4,-,N/A,,Clear,310,2013-05-12 03:15:00
10:35 PM,42.8,26.6,53,30.13,10.0,NW,11.5,-,N/A,,Clear,310,2013-05-12 03:35:00
10:55 PM,42.8,26.6,53,30.13,10.0,NW,11.5,-,N/A,,Clear,320,2013-05-12 03:55:00
11:15 PM,42.8,26.6,53,30.14,10.0,NNW,13.8,-,N/A,,Clear,330,2013-05-12 04:15:00
11:35 PM,41.0,26.6,57,30.14,10.0,NW,10.4,-,N/A,,Clear,320,2013-05-12 04:35:00
11:55 PM,39.2,26.6,61,30.14,10.0,NW,9.2,-,N/A,,Clear,320,2013-05-12 04:55:00